Time;durP1;ratioP1;P1;durP2;ratioP2;P2;SDS_P1;SDS_P2;PMS_P1;PMS_P2;Temp;Humidity;BMP_temperature;BMP_pressure;BME280_temperature;BME280_humidity;BME280_pressure;Samples;Min_cycle;Max_cycle;Signal;HPM_P1;HPM_P2
2023/03/17 18:12:37;;;;;;;291.15;216.40;;;;;;;21.63;51.54;100136.41;5100243;27;20385;-47
2023/03/17 18:15:05;;;;;;;279.80;214.57;;;;;;;22.56;48.94;100138.91;5089065;28;20028;-48
2023/03/17 18:17:34;;;;;;;270.83;205.60;;;;;;;23.29;46.77;100134.84;5089666;28;20036;-47
2023/03/17 18:20:01;;;;;;;261.15;195.77;;;;;;;23.83;45.54;100152.41;5089506;28;20133;-48
2023/03/17 18:22:28;;;;;;;263.13;193.50;;;;;;;24.17;44.25;100152.44;5089203;28;20031;-50
2023/03/17 18:24:56;;;;;;;272.30;204.13;;;;;;;24.41;44.20;100140.16;5089428;28;20431;-47
2023/03/17 18:27:23;;;;;;;274.83;202.73;;;;;;;24.63;43.24;100142.75;5089540;28;20516;-50
2023/03/17 18:29:51;;;;;;;264.20;198.88;;;;;;;24.72;43.44;100146.25;5089054;28;20068;-46
2023/03/17 18:32:18;;;;;;;257.23;192.02;;;;;;;24.78;43.02;100147.13;5083614;28;20040;-47
2023/03/17 18:34:46;;;;;;;256.55;194.27;;;;;;;24.85;42.81;100147.09;5089310;28;20020;-48
2023/03/17 18:37:16;;;;;;;269.02;199.55;;;;;;;24.89;42.92;100158.44;5088865;28;20031;-47
2023/03/17 18:39:45;;;;;;;260.60;194.18;;;;;;;24.93;43.09;100154.03;5089295;28;20029;-48
2023/03/17 18:42:13;;;;;;;267.33;199.02;;;;;;;24.93;42.68;100156.66;5088473;28;20043;-48
2023/03/17 18:44:41;;;;;;;269.15;198.80;;;;;;;24.97;42.71;100161.03;5088867;28;20417;-49
2023/03/17 18:47:09;;;;;;;268.05;200.38;;;;;;;24.94;42.75;100161.94;5088836;28;20028;-47
2023/03/17 18:49:37;;;;;;;260.75;195.70;;;;;;;24.98;42.76;100166.28;5089138;28;20066;-48
2023/03/17 18:52:06;;;;;;;253.82;193.30;;;;;;;24.98;42.80;100161.03;5087902;28;20500;-50
2023/03/17 18:54:35;;;;;;;265.30;190.75;;;;;;;25.03;42.48;100167.13;5088924;28;20064;-48
2023/03/17 18:57:03;;;;;;;264.88;194.10;;;;;;;25.15;42.32;100167.97;5088348;28;20466;-48
2023/03/17 18:59:32;;;;;;;263.60;194.05;;;;;;;25.12;42.65;100157.47;5070446;28;20028;-48
2023/03/17 19:02:00;;;;;;;264.05;190.15;;;;;;;25.10;42.44;100174.97;5086871;28;20089;-50
2023/03/17 19:04:28;;;;;;;273.17;201.32;;;;;;;25.12;42.40;100168.84;5087523;28;20051;-48
2023/03/17 19:06:56;;;;;;;263.63;188.05;;;;;;;24.99;42.70;100173.25;5088310;28;20031;-48
2023/03/17 19:09:25;;;;;;;249.45;186.73;;;;;;;25.04;42.72;100178.50;5089712;28;20038;-48
2023/03/17 19:11:54;;;;;;;255.93;187.27;;;;;;;25.08;42.38;100174.97;5088091;28;20052;-48
2023/03/17 19:14:22;;;;;;;267.95;190.40;;;;;;;25.12;42.54;100181.09;5088527;28;20367;-46
2023/03/17 19:16:50;;;;;;;256.40;183.82;;;;;;;25.14;42.13;100166.22;5086839;28;20029;-48
2023/03/17 19:19:18;;;;;;;256.60;187.40;;;;;;;25.18;42.18;100168.81;5088212;28;20478;-49
2023/03/17 19:21:47;;;;;;;264.85;187.80;;;;;;;25.13;41.97;100174.97;5086843;28;20378;-48
2023/03/17 19:24:16;;;;;;;250.45;184.23;;;;;;;25.07;42.40;100177.63;5074252;28;20025;-47
2023/03/17 19:26:45;;;;;;;260.23;184.27;;;;;;;25.02;42.37;100167.16;5074585;28;20020;-49
2023/03/17 19:29:17;;;;;;;255.95;186.57;;;;;;;25.07;42.47;100172.38;5074361;28;20029;-48
2023/03/17 19:31:50;;;;;;;252.15;185.02;;;;;;;25.01;42.09;100165.41;5071531;28;20036;-48
2023/03/17 19:34:21;;;;;;;266.13;190.80;;;;;;;24.99;42.34;100167.16;5074027;28;20538;-48
2023/03/17 19:36:49;;;;;;;250.48;182.60;;;;;;;25.00;41.99;100171.53;5048239;28;20042;-48
2023/03/17 19:39:17;;;;;;;261.83;188.00;;;;;;;24.98;42.19;100171.53;5005632;28;20038;-48
2023/03/17 19:41:47;;;;;;;243.52;178.38;;;;;;;25.10;42.03;100159.25;5007784;28;20083;-49
2023/03/17 19:44:14;;;;;;;260.67;183.35;;;;;;;25.11;42.00;100168.84;5010765;28;20034;-48
2023/03/17 19:46:42;;;;;;;250.63;182.60;;;;;;;25.07;42.05;100165.34;5007766;28;20518;-50
2023/03/17 19:49:10;;;;;;;256.92;183.70;;;;;;;25.17;41.87;100166.19;5008210;28;20030;-49
2023/03/17 19:51:37;;;;;;;261.15;182.27;;;;;;;25.08;41.84;100167.09;5007122;28;20030;-48
2023/03/17 19:54:04;;;;;;;250.68;184.00;;;;;;;25.05;41.88;100164.50;5011356;28;20038;-48
2023/03/17 19:56:32;;;;;;;268.00;191.43;;;;;;;25.01;42.12;100161.00;5008352;28;20026;-48
2023/03/17 19:59:00;;;;;;;263.77;189.48;;;;;;;25.08;42.10;100161.84;5011726;28;20034;-48
2023/03/17 20:01:29;;;;;;;265.70;192.68;;;;;;;24.98;42.21;100163.66;5009761;28;20030;-48
2023/03/17 20:03:56;;;;;;;257.20;187.93;;;;;;;25.00;42.13;100166.28;5009830;28;20399;-52
2023/03/17 20:06:23;;;;;;;271.27;194.73;;;;;;;24.97;42.09;100163.66;5002839;28;20384;-49
2023/03/17 20:08:51;;;;;;;261.15;194.60;;;;;;;25.00;42.34;100171.53;5010350;28;20072;-47
2023/03/17 20:11:20;;;;;;;264.33;190.88;;;;;;;24.94;42.21;100169.81;5008498;28;20052;-48
2023/03/17 20:13:49;;;;;;;267.70;194.45;;;;;;;24.98;42.10;100168.91;5011617;28;20476;-48
2023/03/17 20:16:17;;;;;;;269.40;191.48;;;;;;;24.96;42.06;100165.44;5004720;28;20085;-47
2023/03/17 20:18:44;;;;;;;249.00;187.85;;;;;;;24.97;42.19;100167.16;5008932;28;20510;-48
2023/03/17 20:21:13;;;;;;;264.27;187.88;;;;;;;24.94;41.98;100163.66;5007465;28;20404;-48
2023/03/17 20:23:40;;;;;;;257.67;187.57;;;;;;;24.97;42.02;100166.28;5006398;28;20064;-48
2023/03/17 20:26:08;;;;;;;263.02;192.93;;;;;;;24.94;42.17;100166.28;5002827;28;20033;-48
2023/03/17 20:28:37;;;;;;;268.98;192.93;;;;;;;24.95;42.34;100161.06;5008897;28;20030;-48
2023/03/17 20:31:06;;;;;;;285.25;202.90;;;;;;;24.93;42.18;100160.19;5006245;28;20104;-48
2023/03/17 20:33:34;;;;;;;266.95;197.75;;;;;;;24.87;42.22;100158.47;5006358;28;20480;-47
2023/03/17 20:36:02;;;;;;;264.70;196.13;;;;;;;24.84;42.33;100150.59;5007636;28;20032;-48
2023/03/17 20:38:32;;;;;;;267.73;199.05;;;;;;;24.87;42.55;100152.31;5009184;28;20121;-49
2023/03/17 20:41:13;;;;;;;277.98;205.57;;;;;;;24.88;42.31;100154.97;5007675;28;20580;-47
2023/03/17 20:43:41;;;;;;;265.33;196.68;;;;;;;24.94;42.05;100155.78;5007711;28;20040;-48
2023/03/17 20:46:13;;;;;;;269.30;198.38;;;;;;;24.83;42.45;100151.47;5004717;28;20030;-50
2023/03/17 20:48:41;;;;;;;268.83;194.18;;;;;;;24.81;42.24;100155.84;5005587;28;20423;-48
2023/03/17 20:51:15;;;;;;;263.15;199.77;;;;;;;24.80;42.07;100154.09;5004941;28;20435;-49
2023/03/17 20:53:45;;;;;;;270.85;199.73;;;;;;;24.78;42.58;100149.75;5006973;28;20049;-49
2023/03/17 20:56:15;;;;;;;277.92;200.50;;;;;;;24.82;42.44;100149.72;5005798;28;20036;-52
2023/03/17 20:58:45;;;;;;;269.17;200.63;;;;;;;24.86;42.00;100146.22;5004107;28;20418;-49
2023/03/17 21:01:15;;;;;;;272.40;199.45;;;;;;;24.79;42.40;100160.22;5007800;28;20080;-48
2023/03/17 21:03:44;;;;;;;272.35;199.60;;;;;;;24.79;42.29;100160.22;5007477;28;20512;-48
2023/03/17 21:06:12;;;;;;;271.42;196.25;;;;;;;24.82;42.44;100151.50;5006467;28;20036;-49
2023/03/17 21:08:39;;;;;;;277.00;205.25;;;;;;;24.87;42.16;100152.31;5006886;28;20026;-48
2023/03/17 21:11:08;;;;;;;271.98;200.80;;;;;;;24.81;42.26;100147.13;5006545;28;20045;-48
2023/03/17 21:13:36;;;;;;;277.58;207.20;;;;;;;24.82;42.07;100154.97;5006676;28;20480;-48
2023/03/17 21:16:03;;;;;;;284.15;207.48;;;;;;;24.80;42.16;100153.25;5010502;28;20058;-48
2023/03/17 21:18:30;;;;;;;295.88;210.38;;;;;;;24.76;42.39;100148.88;5009053;28;20032;-52
2023/03/17 21:20:57;;;;;;;288.73;209.20;;;;;;;24.76;42.30;100134.00;5006805;28;20035;-49
2023/03/17 21:23:25;;;;;;;273.23;206.13;;;;;;;24.85;42.42;100136.59;5008323;28;20437;-48
2023/03/17 21:25:55;;;;;;;283.92;214.95;;;;;;;24.87;42.21;100136.59;5006800;28;20052;-47
